sensor_id;sensor_type;location;lat;lon;timestamp;temperature;humidity
55135;DHT22;41031;44.750;11.308;2024-03-02T00:00:36;12.70;99.90
55135;DHT22;41031;44.750;11.308;2024-03-02T00:03:07;12.60;99.90
55135;DHT22;41031;44.750;11.308;2024-03-02T00:05:37;12.60;99.90
55135;DHT22;41031;44.750;11.308;2024-03-02T00:08:07;12.60;99.90
55135;DHT22;41031;44.750;11.308;2024-03-02T00:10:40;12.50;99.90
55135;DHT22;41031;44.750;11.308;2024-03-02T00:13:13;12.60;99.90
55135;DHT22;41031;44.750;11.308;2024-03-02T00:15:47;12.60;99.90
55135;DHT22;41031;44.750;11.308;2024-03-02T00:18:30;12.60;99.90
55135;DHT22;41031;44.750;11.308;2024-03-02T00:21:02;12.60;99.90
55135;DHT22;41031;44.750;11.308;2024-03-02T00:23:32;12.60;99.90
55135;DHT22;41031;44.750;11.308;2024-03-02T00:26:04;12.50;99.90
55135;DHT22;41031;44.750;11.308;2024-03-02T00:28:35;12.50;99.90
55135;DHT22;41031;44.750;11.308;2024-03-02T00:31:06;12.50;99.90
55135;DHT22;41031;44.750;11.308;2024-03-02T00:33:47;12.50;99.90
55135;DHT22;41031;44.750;11.308;2024-03-02T00:36:16;12.50;99.90
55135;DHT22;41031;44.750;11.308;2024-03-02T00:38:50;12.50;99.90
55135;DHT22;41031;44.750;11.308;2024-03-02T00:41:21;12.50;99.90
55135;DHT22;41031;44.750;11.308;2024-03-02T00:44:03;12.50;99.90
55135;DHT22;41031;44.750;11.308;2024-03-02T00:46:37;12.50;99.90
55135;DHT22;41031;44.750;11.308;2024-03-02T00:49:21;12.50;99.90
55135;DHT22;41031;44.750;11.308;2024-03-02T00:51:51;12.50;99.90
55135;DHT22;41031;44.750;11.308;2024-03-02T00:54:27;12.50;99.90
55135;DHT22;41031;44.750;11.308;2024-03-02T00:56:57;12.50;99.90
55135;DHT22;41031;44.750;11.308;2024-03-02T00:59:26;12.50;99.90
55135;DHT22;41031;44.750;11.308;2024-03-02T01:01:53;12.50;99.90
55135;DHT22;41031;44.750;11.308;2024-03-02T01:04:21;12.50;99.90
55135;DHT22;41031;44.750;11.308;2024-03-02T01:06:50;12.60;99.90
55135;DHT22;41031;44.750;11.308;2024-03-02T01:09:17;12.50;99.90
55135;DHT22;41031;44.750;11.308;2024-03-02T01:11:45;12.50;99.90
55135;DHT22;41031;44.750;11.308;2024-03-02T01:14:15;12.50;99.90
55135;DHT22;41031;44.750;11.308;2024-03-02T01:16:43;12.50;99.90
55135;DHT22;41031;44.750;11.308;2024-03-02T01:19:14;12.50;99.90
55135;DHT22;41031;44.750;11.308;2024-03-02T01:21:45;12.60;99.90
55135;DHT22;41031;44.750;11.308;2024-03-02T01:24:13;12.60;99.90
55135;DHT22;41031;44.750;11.308;2024-03-02T01:26:45;12.60;99.90
55135;DHT22;41031;44.750;11.308;2024-03-02T01:29:16;12.50;99.90
55135;DHT22;41031;44.750;11.308;2024-03-02T01:31:47;12.50;99.90
55135;DHT22;41031;44.750;11.308;2024-03-02T01:34:18;12.60;99.90
55135;DHT22;41031;44.750;11.308;2024-03-02T01:36:47;12.50;99.90
55135;DHT22;41031;44.750;11.308;2024-03-02T01:39:15;12.50;99.90
55135;DHT22;41031;44.750;11.308;2024-03-02T01:41:46;12.50;99.90
55135;DHT22;41031;44.750;11.308;2024-03-02T01:44:16;12.50;99.90
55135;DHT22;41031;44.750;11.308;2024-03-02T01:46:44;12.50;99.90
55135;DHT22;41031;44.750;11.308;2024-03-02T01:49:11;12.50;99.90
55135;DHT22;41031;44.750;11.308;2024-03-02T01:51:39;12.50;99.90
55135;DHT22;41031;44.750;11.308;2024-03-02T01:54:08;12.50;99.90
55135;DHT22;41031;44.750;11.308;2024-03-02T01:56:38;12.50;99.90
55135;DHT22;41031;44.750;11.308;2024-03-02T01:59:07;12.50;99.90
55135;DHT22;41031;44.750;11.308;2024-03-02T02:01:34;12.40;99.90
55135;DHT22;41031;44.750;11.308;2024-03-02T02:04:05;12.50;99.90
55135;DHT22;41031;44.750;11.308;2024-03-02T02:06:33;12.50;99.90
55135;DHT22;41031;44.750;11.308;2024-03-02T02:09:01;12.40;99.90
55135;DHT22;41031;44.750;11.308;2024-03-02T02:11:34;12.40;99.90
55135;DHT22;41031;44.750;11.308;2024-03-02T02:14:06;12.40;99.90
55135;DHT22;41031;44.750;11.308;2024-03-02T02:16:37;12.40;99.90
55135;DHT22;41031;44.750;11.308;2024-03-02T02:19:06;12.40;99.90
55135;DHT22;41031;44.750;11.308;2024-03-02T02:21:42;12.40;99.90
55135;DHT22;41031;44.750;11.308;2024-03-02T02:24:13;12.40;99.90
55135;DHT22;41031;44.750;11.308;2024-03-02T02:26:45;12.30;99.90
55135;DHT22;41031;44.750;11.308;2024-03-02T02:29:14;12.40;99.90
55135;DHT22;41031;44.750;11.308;2024-03-02T02:31:43;12.30;99.90
55135;DHT22;41031;44.750;11.308;2024-03-02T02:34:14;12.30;99.90
55135;DHT22;41031;44.750;11.308;2024-03-02T02:36:43;12.30;99.90
55135;DHT22;41031;44.750;11.308;2024-03-02T02:39:16;12.30;99.90
55135;DHT22;41031;44.750;11.308;2024-03-02T02:41:49;12.30;99.90
55135;DHT22;41031;44.750;11.308;2024-03-02T02:44:19;12.30;99.90
55135;DHT22;41031;44.750;11.308;2024-03-02T02:46:52;12.40;99.90
55135;DHT22;41031;44.750;11.308;2024-03-02T02:49:24;12.40;99.90
55135;DHT22;41031;44.750;11.308;2024-03-02T02:51:53;12.30;99.90
55135;DHT22;41031;44.750;11.308;2024-03-02T02:54:20;12.30;99.90
55135;DHT22;41031;44.750;11.308;2024-03-02T02:56:48;12.30;99.90
55135;DHT22;41031;44.750;11.308;2024-03-02T02:59:15;12.30;99.90
55135;DHT22;41031;44.750;11.308;2024-03-02T03:01:42;12.30;99.90
55135;DHT22;41031;44.750;11.308;2024-03-02T03:04:10;12.30;99.90
55135;DHT22;41031;44.750;11.308;2024-03-02T03:06:37;12.30;99.90
55135;DHT22;41031;44.750;11.308;2024-03-02T03:09:04;12.30;99.90
55135;DHT22;41031;44.750;11.308;2024-03-02T03:11:32;12.30;99.90
55135;DHT22;41031;44.750;11.308;2024-03-02T03:14:02;12.30;99.90
55135;DHT22;41031;44.750;11.308;2024-03-02T03:16:31;12.20;99.90
55135;DHT22;41031;44.750;11.308;2024-03-02T03:18:59;12.30;99.90
55135;DHT22;41031;44.750;11.308;2024-03-02T03:21:26;12.20;99.90
55135;DHT22;41031;44.750;11.308;2024-03-02T03:23:53;12.20;99.90
55135;DHT22;41031;44.750;11.308;2024-03-02T03:26:22;12.20;99.90
55135;DHT22;41031;44.750;11.308;2024-03-02T03:28:49;12.20;99.90
55135;DHT22;41031;44.750;11.308;2024-03-02T03:31:17;12.20;99.90
55135;DHT22;41031;44.750;11.308;2024-03-02T03:33:44;12.20;99.90
55135;DHT22;41031;44.750;11.308;2024-03-02T03:36:13;12.20;99.90
55135;DHT22;41031;44.750;11.308;2024-03-02T03:38:43;12.20;99.90
55135;DHT22;41031;44.750;11.308;2024-03-02T03:41:14;12.10;99.90
55135;DHT22;41031;44.750;11.308;2024-03-02T03:43:47;12.20;99.90
55135;DHT22;41031;44.750;11.308;2024-03-02T03:46:18;12.20;99.90
55135;DHT22;41031;44.750;11.308;2024-03-02T03:48:46;12.20;99.90
55135;DHT22;41031;44.750;11.308;2024-03-02T03:51:16;12.20;99.90
55135;DHT22;41031;44.750;11.308;2024-03-02T03:53:43;12.20;99.90
55135;DHT22;41031;44.750;11.308;2024-03-02T03:56:11;12.20;99.90
55135;DHT22;41031;44.750;11.308;2024-03-02T03:58:40;12.30;99.90
55135;DHT22;41031;44.750;11.308;2024-03-02T04:01:10;12.20;99.90
55135;DHT22;41031;44.750;11.308;2024-03-02T04:03:39;12.20;99.90
55135;DHT22;41031;44.750;11.308;2024-03-02T04:06:10;12.20;99.90
55135;DHT22;41031;44.750;11.308;2024-03-02T04:08:41;12.20;99.90
55135;DHT22;41031;44.750;11.308;2024-03-02T04:11:09;12.20;99.90
55135;DHT22;41031;44.750;11.308;2024-03-02T04:13:39;12.20;99.90
55135;DHT22;41031;44.750;11.308;2024-03-02T04:16:09;12.20;99.90
55135;DHT22;41031;44.750;11.308;2024-03-02T04:18:39;12.20;99.90
55135;DHT22;41031;44.750;11.308;2024-03-02T04:21:08;12.20;99.90
55135;DHT22;41031;44.750;11.308;2024-03-02T04:23:39;12.20;99.90
55135;DHT22;41031;44.750;11.308;2024-03-02T04:26:07;12.20;99.90
55135;DHT22;41031;44.750;11.308;2024-03-02T04:28:34;12.20;99.90
55135;DHT22;41031;44.750;11.308;2024-03-02T04:31:04;12.20;99.90
55135;DHT22;41031;44.750;11.308;2024-03-02T04:33:34;12.10;99.90
55135;DHT22;41031;44.750;11.308;2024-03-02T04:36:04;12.20;99.90
55135;DHT22;41031;44.750;11.308;2024-03-02T04:38:35;12.20;99.90
55135;DHT22;41031;44.750;11.308;2024-03-02T04:41:05;12.20;99.90
55135;DHT22;41031;44.750;11.308;2024-03-02T04:43:36;12.20;99.90
55135;DHT22;41031;44.750;11.308;2024-03-02T04:46:06;12.20;99.90
55135;DHT22;41031;44.750;11.308;2024-03-02T04:48:37;12.20;99.90
55135;DHT22;41031;44.750;11.308;2024-03-02T04:51:05;12.20;99.90
55135;DHT22;41031;44.750;11.308;2024-03-02T04:53:32;12.20;99.90
55135;DHT22;41031;44.750;11.308;2024-03-02T04:56:02;12.10;99.90
55135;DHT22;41031;44.750;11.308;2024-03-02T04:58:49;12.10;99.90
55135;DHT22;41031;44.750;11.308;2024-03-02T05:01:17;12.10;99.90
55135;DHT22;41031;44.750;11.308;2024-03-02T05:03:46;12.10;99.90
55135;DHT22;41031;44.750;11.308;2024-03-02T05:06:14;12.10;99.90
55135;DHT22;41031;44.750;11.308;2024-03-02T05:08:43;12.00;99.90
55135;DHT22;41031;44.750;11.308;2024-03-02T05:11:13;12.00;99.90
55135;DHT22;41031;44.750;11.308;2024-03-02T05:14:22;12.00;99.90
55135;DHT22;41031;44.750;11.308;2024-03-02T05:16:52;12.00;99.90
55135;DHT22;41031;44.750;11.308;2024-03-02T05:19:22;12.00;99.90
55135;DHT22;41031;44.750;11.308;2024-03-02T05:21:52;12.00;99.90
55135;DHT22;41031;44.750;11.308;2024-03-02T05:24:22;12.00;99.90
55135;DHT22;41031;44.750;11.308;2024-03-02T05:26:52;12.00;99.90
55135;DHT22;41031;44.750;11.308;2024-03-02T05:29:21;12.00;99.90
55135;DHT22;41031;44.750;11.308;2024-03-02T05:31:50;12.00;99.90
55135;DHT22;41031;44.750;11.308;2024-03-02T05:34:22;12.00;99.90
55135;DHT22;41031;44.750;11.308;2024-03-02T05:36:53;12.00;99.90
55135;DHT22;41031;44.750;11.308;2024-03-02T05:39:21;12.00;99.90
55135;DHT22;41031;44.750;11.308;2024-03-02T05:41:50;12.00;99.90
55135;DHT22;41031;44.750;11.308;2024-03-02T05:44:17;12.00;99.90
55135;DHT22;41031;44.750;11.308;2024-03-02T05:46:49;12.00;99.90
55135;DHT22;41031;44.750;11.308;2024-03-02T05:49:19;12.00;99.90
55135;DHT22;41031;44.750;11.308;2024-03-02T05:51:48;12.00;99.90
55135;DHT22;41031;44.750;11.308;2024-03-02T05:54:16;12.00;99.90
55135;DHT22;41031;44.750;11.308;2024-03-02T05:56:46;12.00;99.90
55135;DHT22;41031;44.750;11.308;2024-03-02T05:59:18;12.00;99.90
55135;DHT22;41031;44.750;11.308;2024-03-02T06:01:49;12.00;99.90
55135;DHT22;41031;44.750;11.308;2024-03-02T06:04:22;12.00;99.90
55135;DHT22;41031;44.750;11.308;2024-03-02T06:06:55;12.00;99.90
55135;DHT22;41031;44.750;11.308;2024-03-02T06:09:24;12.00;99.90
55135;DHT22;41031;44.750;11.308;2024-03-02T06:11:56;12.00;99.90
55135;DHT22;41031;44.750;11.308;2024-03-02T06:14:25;12.00;99.90
55135;DHT22;41031;44.750;11.308;2024-03-02T06:16:53;12.00;99.90
55135;DHT22;41031;44.750;11.308;2024-03-02T06:19:24;12.00;99.90
55135;DHT22;41031;44.750;11.308;2024-03-02T06:21:55;12.00;99.90
55135;DHT22;41031;44.750;11.308;2024-03-02T06:24:25;12.00;99.90
55135;DHT22;41031;44.750;11.308;2024-03-02T06:26:54;12.10;99.90
55135;DHT22;41031;44.750;11.308;2024-03-02T06:29:22;12.10;99.90
55135;DHT22;41031;44.750;11.308;2024-03-02T06:31:50;12.10;99.90
55135;DHT22;41031;44.750;11.308;2024-03-02T06:34:21;12.20;99.90
55135;DHT22;41031;44.750;11.308;2024-03-02T06:36:48;12.20;99.90
55135;DHT22;41031;44.750;11.308;2024-03-02T06:39:17;12.20;99.90
55135;DHT22;41031;44.750;11.308;2024-03-02T06:41:48;12.30;99.90
55135;DHT22;41031;44.750;11.308;2024-03-02T06:44:17;12.30;99.90
55135;DHT22;41031;44.750;11.308;2024-03-02T06:46:47;12.30;99.90
55135;DHT22;41031;44.750;11.308;2024-03-02T06:49:17;12.30;99.90
55135;DHT22;41031;44.750;11.308;2024-03-02T06:51:48;12.40;99.90
55135;DHT22;41031;44.750;11.308;2024-03-02T06:54:18;12.40;99.90
55135;DHT22;41031;44.750;11.308;2024-03-02T06:56:48;12.40;99.90
55135;DHT22;41031;44.750;11.308;2024-03-02T06:59:17;12.40;99.90
55135;DHT22;41031;44.750;11.308;2024-03-02T07:01:47;12.40;99.90
55135;DHT22;41031;44.750;11.308;2024-03-02T07:04:17;12.40;99.90
55135;DHT22;41031;44.750;11.308;2024-03-02T07:06:46;12.40;99.90
55135;DHT22;41031;44.750;11.308;2024-03-02T07:09:15;12.40;99.90
55135;DHT22;41031;44.750;11.308;2024-03-02T07:11:43;12.40;99.90
55135;DHT22;41031;44.750;11.308;2024-03-02T07:14:17;12.50;99.90
55135;DHT22;41031;44.750;11.308;2024-03-02T07:16:46;12.50;99.90
55135;DHT22;41031;44.750;11.308;2024-03-02T07:19:15;12.50;99.90
55135;DHT22;41031;44.750;11.308;2024-03-02T07:21:44;12.60;99.90
55135;DHT22;41031;44.750;11.308;2024-03-02T07:24:13;12.60;99.90
55135;DHT22;41031;44.750;11.308;2024-03-02T07:26:44;12.60;99.90
55135;DHT22;41031;44.750;11.308;2024-03-02T07:29:15;12.60;99.90
55135;DHT22;41031;44.750;11.308;2024-03-02T07:31:42;12.60;99.90
55135;DHT22;41031;44.750;11.308;2024-03-02T07:34:11;12.60;99.90
55135;DHT22;41031;44.750;11.308;2024-03-02T07:36:42;12.60;99.90
55135;DHT22;41031;44.750;11.308;2024-03-02T07:39:11;12.70;99.90
55135;DHT22;41031;44.750;11.308;2024-03-02T07:41:41;12.70;99.90
55135;DHT22;41031;44.750;11.308;2024-03-02T07:44:11;12.70;99.90
55135;DHT22;41031;44.750;11.308;2024-03-02T07:46:43;12.70;99.90
55135;DHT22;41031;44.750;11.308;2024-03-02T07:49:12;12.70;99.90
55135;DHT22;41031;44.750;11.308;2024-03-02T07:51:46;12.70;99.90
55135;DHT22;41031;44.750;11.308;2024-03-02T07:54:15;12.70;99.90
55135;DHT22;41031;44.750;11.308;2024-03-02T07:56:45;12.80;99.90
55135;DHT22;41031;44.750;11.308;2024-03-02T07:59:15;12.80;99.90
55135;DHT22;41031;44.750;11.308;2024-03-02T08:01:44;12.80;99.90
55135;DHT22;41031;44.750;11.308;2024-03-02T08:04:14;12.80;99.90
55135;DHT22;41031;44.750;11.308;2024-03-02T08:06:44;12.80;99.90
55135;DHT22;41031;44.750;11.308;2024-03-02T08:09:16;12.80;99.90
55135;DHT22;41031;44.750;11.308;2024-03-02T08:11:46;12.80;99.90
55135;DHT22;41031;44.750;11.308;2024-03-02T08:14:16;12.80;99.90
55135;DHT22;41031;44.750;11.308;2024-03-02T08:16:45;12.80;99.90
55135;DHT22;41031;44.750;11.308;2024-03-02T08:19:17;12.80;99.90
55135;DHT22;41031;44.750;11.308;2024-03-02T08:21:46;12.90;99.90
55135;DHT22;41031;44.750;11.308;2024-03-02T08:24:16;12.90;99.90
55135;DHT22;41031;44.750;11.308;2024-03-02T08:26:46;12.90;99.90
55135;DHT22;41031;44.750;11.308;2024-03-02T08:29:15;12.90;99.90
55135;DHT22;41031;44.750;11.308;2024-03-02T08:31:43;12.90;99.90
55135;DHT22;41031;44.750;11.308;2024-03-02T08:34:15;12.90;99.90
55135;DHT22;41031;44.750;11.308;2024-03-02T08:36:46;12.90;99.90
55135;DHT22;41031;44.750;11.308;2024-03-02T08:39:18;12.90;99.90
55135;DHT22;41031;44.750;11.308;2024-03-02T08:41:48;13.00;99.90
55135;DHT22;41031;44.750;11.308;2024-03-02T08:44:18;13.00;99.90
55135;DHT22;41031;44.750;11.308;2024-03-02T08:46:48;13.00;99.90
55135;DHT22;41031;44.750;11.308;2024-03-02T08:49:17;13.00;99.90
55135;DHT22;41031;44.750;11.308;2024-03-02T08:51:46;13.00;99.90
55135;DHT22;41031;44.750;11.308;2024-03-02T08:54:22;13.00;99.90
55135;DHT22;41031;44.750;11.308;2024-03-02T08:56:53;13.10;99.90
55135;DHT22;41031;44.750;11.308;2024-03-02T08:59:21;13.10;99.90
55135;DHT22;41031;44.750;11.308;2024-03-02T09:01:50;13.20;99.90
55135;DHT22;41031;44.750;11.308;2024-03-02T09:04:19;13.10;99.90
55135;DHT22;41031;44.750;11.308;2024-03-02T09:06:52;13.20;99.90
55135;DHT22;41031;44.750;11.308;2024-03-02T09:09:22;13.20;99.90
55135;DHT22;41031;44.750;11.308;2024-03-02T09:11:50;13.30;99.90
55135;DHT22;41031;44.750;11.308;2024-03-02T09:14:20;13.30;99.90
55135;DHT22;41031;44.750;11.308;2024-03-02T09:16:49;13.30;99.90
55135;DHT22;41031;44.750;11.308;2024-03-02T09:19:18;13.40;99.90
55135;DHT22;41031;44.750;11.308;2024-03-02T09:21:47;13.40;99.90
55135;DHT22;41031;44.750;11.308;2024-03-02T09:24:15;13.40;99.90
55135;DHT22;41031;44.750;11.308;2024-03-02T09:26:45;13.50;99.90
55135;DHT22;41031;44.750;11.308;2024-03-02T09:29:13;13.50;99.90
55135;DHT22;41031;44.750;11.308;2024-03-02T09:31:43;13.50;99.90
55135;DHT22;41031;44.750;11.308;2024-03-02T09:34:12;13.50;99.90
55135;DHT22;41031;44.750;11.308;2024-03-02T09:36:43;13.60;99.90
55135;DHT22;41031;44.750;11.308;2024-03-02T09:39:14;13.60;99.90
55135;DHT22;41031;44.750;11.308;2024-03-02T09:41:43;13.60;99.90
55135;DHT22;41031;44.750;11.308;2024-03-02T09:44:13;13.60;99.90
55135;DHT22;41031;44.750;11.308;2024-03-02T09:46:43;13.60;99.90
55135;DHT22;41031;44.750;11.308;2024-03-02T09:49:12;13.60;99.90
55135;DHT22;41031;44.750;11.308;2024-03-02T09:51:48;13.60;99.90
55135;DHT22;41031;44.750;11.308;2024-03-02T09:54:22;13.60;99.90
55135;DHT22;41031;44.750;11.308;2024-03-02T09:56:52;13.60;99.90
55135;DHT22;41031;44.750;11.308;2024-03-02T09:59:21;13.70;99.90
55135;DHT22;41031;44.750;11.308;2024-03-02T10:01:59;13.70;99.90
55135;DHT22;41031;44.750;11.308;2024-03-02T10:04:29;13.80;99.90
55135;DHT22;41031;44.750;11.308;2024-03-02T10:07:15;13.80;99.90
55135;DHT22;41031;44.750;11.308;2024-03-02T10:09:46;13.90;99.90
55135;DHT22;41031;44.750;11.308;2024-03-02T10:12:16;14.00;99.90
55135;DHT22;41031;44.750;11.308;2024-03-02T10:14:46;14.00;99.90
55135;DHT22;41031;44.750;11.308;2024-03-02T10:17:18;14.10;99.90
55135;DHT22;41031;44.750;11.308;2024-03-02T10:19:46;14.20;99.90
55135;DHT22;41031;44.750;11.308;2024-03-02T10:22:15;14.20;99.90
55135;DHT22;41031;44.750;11.308;2024-03-02T10:24:45;14.20;99.90
55135;DHT22;41031;44.750;11.308;2024-03-02T10:27:27;14.30;99.90
55135;DHT22;41031;44.750;11.308;2024-03-02T10:29:56;14.40;99.90
55135;DHT22;41031;44.750;11.308;2024-03-02T10:32:26;14.40;99.90
55135;DHT22;41031;44.750;11.308;2024-03-02T10:34:56;14.50;99.90
55135;DHT22;41031;44.750;11.308;2024-03-02T10:37:26;14.40;99.90
55135;DHT22;41031;44.750;11.308;2024-03-02T10:39:55;14.40;99.90
55135;DHT22;41031;44.750;11.308;2024-03-02T10:42:25;14.50;99.90
55135;DHT22;41031;44.750;11.308;2024-03-02T10:44:53;14.50;99.90
55135;DHT22;41031;44.750;11.308;2024-03-02T10:47:26;14.60;99.90
55135;DHT22;41031;44.750;11.308;2024-03-02T10:49:59;14.70;99.90
55135;DHT22;41031;44.750;11.308;2024-03-02T10:52:29;14.70;99.90
55135;DHT22;41031;44.750;11.308;2024-03-02T10:54:57;14.80;99.90
55135;DHT22;41031;44.750;11.308;2024-03-02T10:57:27;14.80;99.90
55135;DHT22;41031;44.750;11.308;2024-03-02T11:00:02;14.80;99.90
55135;DHT22;41031;44.750;11.308;2024-03-02T11:02:31;14.80;99.90
55135;DHT22;41031;44.750;11.308;2024-03-02T11:05:00;14.80;99.90
55135;DHT22;41031;44.750;11.308;2024-03-02T11:07:38;14.80;99.90
55135;DHT22;41031;44.750;11.308;2024-03-02T11:10:09;14.80;99.90
55135;DHT22;41031;44.750;11.308;2024-03-02T11:12:53;14.70;99.90
55135;DHT22;41031;44.750;11.308;2024-03-02T11:15:27;14.70;99.90
55135;DHT22;41031;44.750;11.308;2024-03-02T11:17:57;14.70;99.90
55135;DHT22;41031;44.750;11.308;2024-03-02T11:20:26;14.60;99.90
55135;DHT22;41031;44.750;11.308;2024-03-02T11:22:58;14.60;99.90
55135;DHT22;41031;44.750;11.308;2024-03-02T11:25:32;14.60;99.90
55135;DHT22;41031;44.750;11.308;2024-03-02T11:28:02;14.50;99.90
55135;DHT22;41031;44.750;11.308;2024-03-02T11:33:04;14.60;99.90
55135;DHT22;41031;44.750;11.308;2024-03-02T11:35:42;14.60;99.90
55135;DHT22;41031;44.750;11.308;2024-03-02T11:38:11;14.60;99.90
55135;DHT22;41031;44.750;11.308;2024-03-02T11:40:40;14.60;99.90
55135;DHT22;41031;44.750;11.308;2024-03-02T11:43:08;14.60;99.90
55135;DHT22;41031;44.750;11.308;2024-03-02T11:45:36;14.50;99.90
55135;DHT22;41031;44.750;11.308;2024-03-02T11:48:08;14.50;99.90
55135;DHT22;41031;44.750;11.308;2024-03-02T11:50:50;14.60;99.90
55135;DHT22;41031;44.750;11.308;2024-03-02T11:53:20;14.80;99.90
55135;DHT22;41031;44.750;11.308;2024-03-02T11:55:49;15.00;99.90
55135;DHT22;41031;44.750;11.308;2024-03-02T11:58:20;15.30;99.90
55135;DHT22;41031;44.750;11.308;2024-03-02T12:00:53;15.50;99.90
55135;DHT22;41031;44.750;11.308;2024-03-02T12:03:24;15.80;99.90
55135;DHT22;41031;44.750;11.308;2024-03-02T12:05:55;16.00;99.90
55135;DHT22;41031;44.750;11.308;2024-03-02T12:08:23;16.10;99.90
55135;DHT22;41031;44.750;11.308;2024-03-02T12:11:01;16.20;99.90
55135;DHT22;41031;44.750;11.308;2024-03-02T12:13:31;16.20;99.90
55135;DHT22;41031;44.750;11.308;2024-03-02T12:15:59;16.10;99.80
55135;DHT22;41031;44.750;11.308;2024-03-02T12:18:27;16.10;99.60
55135;DHT22;41031;44.750;11.308;2024-03-02T12:20:55;16.10;99.50
55135;DHT22;41031;44.750;11.308;2024-03-02T12:23:26;16.10;98.30
55135;DHT22;41031;44.750;11.308;2024-03-02T12:25:54;16.00;98.90
55135;DHT22;41031;44.750;11.308;2024-03-02T12:28:23;16.10;99.20
55135;DHT22;41031;44.750;11.308;2024-03-02T12:30:50;16.30;99.10
55135;DHT22;41031;44.750;11.308;2024-03-02T12:33:20;16.40;98.50
55135;DHT22;41031;44.750;11.308;2024-03-02T12:35:49;16.50;98.00
55135;DHT22;41031;44.750;11.308;2024-03-02T12:38:17;16.50;98.00
55135;DHT22;41031;44.750;11.308;2024-03-02T12:40:48;16.40;97.80
55135;DHT22;41031;44.750;11.308;2024-03-02T12:43:17;16.30;97.70
55135;DHT22;41031;44.750;11.308;2024-03-02T12:45:44;16.20;97.80
55135;DHT22;41031;44.750;11.308;2024-03-02T12:48:13;16.10;98.00
55135;DHT22;41031;44.750;11.308;2024-03-02T12:50:42;16.10;97.50
55135;DHT22;41031;44.750;11.308;2024-03-02T12:53:17;16.00;97.70
55135;DHT22;41031;44.750;11.308;2024-03-02T12:55:45;16.00;97.50
55135;DHT22;41031;44.750;11.308;2024-03-02T12:58:22;16.00;97.70
55135;DHT22;41031;44.750;11.308;2024-03-02T13:00:50;16.00;98.00
55135;DHT22;41031;44.750;11.308;2024-03-02T13:03:18;16.10;98.10
55135;DHT22;41031;44.750;11.308;2024-03-02T13:05:50;16.10;98.00
55135;DHT22;41031;44.750;11.308;2024-03-02T13:08:18;16.10;98.00
55135;DHT22;41031;44.750;11.308;2024-03-02T13:10:47;16.20;98.10
55135;DHT22;41031;44.750;11.308;2024-03-02T13:13:16;16.10;98.00
55135;DHT22;41031;44.750;11.308;2024-03-02T13:15:45;16.20;97.60
55135;DHT22;41031;44.750;11.308;2024-03-02T13:18:13;16.20;97.80
55135;DHT22;41031;44.750;11.308;2024-03-02T13:20:42;16.30;97.80
55135;DHT22;41031;44.750;11.308;2024-03-02T13:23:11;16.30;97.60
55135;DHT22;41031;44.750;11.308;2024-03-02T13:25:38;16.40;97.50
55135;DHT22;41031;44.750;11.308;2024-03-02T13:28:06;16.40;97.40
55135;DHT22;41031;44.750;11.308;2024-03-02T13:30:34;16.50;97.30
55135;DHT22;41031;44.750;11.308;2024-03-02T13:33:02;16.50;97.10
55135;DHT22;41031;44.750;11.308;2024-03-02T13:35:30;16.40;96.30
55135;DHT22;41031;44.750;11.308;2024-03-02T13:37:59;16.40;96.40
55135;DHT22;41031;44.750;11.308;2024-03-02T13:40:28;16.30;95.90
55135;DHT22;41031;44.750;11.308;2024-03-02T13:42:58;16.30;95.70
55135;DHT22;41031;44.750;11.308;2024-03-02T13:45:26;16.20;95.90
55135;DHT22;41031;44.750;11.308;2024-03-02T13:47:55;16.20;96.10
55135;DHT22;41031;44.750;11.308;2024-03-02T13:50:23;16.10;96.60
55135;DHT22;41031;44.750;11.308;2024-03-02T13:52:51;16.10;96.70
55135;DHT22;41031;44.750;11.308;2024-03-02T13:55:19;16.00;96.90
55135;DHT22;41031;44.750;11.308;2024-03-02T13:57:50;16.00;97.10
55135;DHT22;41031;44.750;11.308;2024-03-02T14:00:19;15.90;97.40
55135;DHT22;41031;44.750;11.308;2024-03-02T14:02:48;15.80;97.50
55135;DHT22;41031;44.750;11.308;2024-03-02T14:05:18;15.80;97.20
55135;DHT22;41031;44.750;11.308;2024-03-02T14:07:46;15.70;97.30
55135;DHT22;41031;44.750;11.308;2024-03-02T14:10:14;15.60;97.40
55135;DHT22;41031;44.750;11.308;2024-03-02T14:12:42;15.50;97.20
55135;DHT22;41031;44.750;11.308;2024-03-02T14:15:10;15.50;97.50
55135;DHT22;41031;44.750;11.308;2024-03-02T14:17:38;15.40;97.70
55135;DHT22;41031;44.750;11.308;2024-03-02T14:20:06;15.40;97.80
55135;DHT22;41031;44.750;11.308;2024-03-02T14:22:34;15.30;97.80
55135;DHT22;41031;44.750;11.308;2024-03-02T14:25:02;15.30;98.00
55135;DHT22;41031;44.750;11.308;2024-03-02T14:27:30;15.30;98.10
55135;DHT22;41031;44.750;11.308;2024-03-02T14:30:17;15.30;98.00
55135;DHT22;41031;44.750;11.308;2024-03-02T14:32:45;15.20;97.90
55135;DHT22;41031;44.750;11.308;2024-03-02T14:35:13;15.20;97.70
55135;DHT22;41031;44.750;11.308;2024-03-02T14:37:42;15.20;98.00
55135;DHT22;41031;44.750;11.308;2024-03-02T14:40:12;15.20;98.00
55135;DHT22;41031;44.750;11.308;2024-03-02T14:42:40;15.30;98.20
55135;DHT22;41031;44.750;11.308;2024-03-02T14:45:09;15.30;98.20
55135;DHT22;41031;44.750;11.308;2024-03-02T14:47:38;15.30;98.30
55135;DHT22;41031;44.750;11.308;2024-03-02T14:50:06;15.30;98.50
55135;DHT22;41031;44.750;11.308;2024-03-02T14:52:35;15.30;98.60
55135;DHT22;41031;44.750;11.308;2024-03-02T14:55:03;15.30;98.60
55135;DHT22;41031;44.750;11.308;2024-03-02T14:57:32;15.20;98.70
55135;DHT22;41031;44.750;11.308;2024-03-02T15:00:00;15.20;98.80
55135;DHT22;41031;44.750;11.308;2024-03-02T15:02:29;15.30;99.00
55135;DHT22;41031;44.750;11.308;2024-03-02T15:04:56;15.40;99.10
55135;DHT22;41031;44.750;11.308;2024-03-02T15:07:25;15.40;98.80
55135;DHT22;41031;44.750;11.308;2024-03-02T15:09:52;15.50;98.60
55135;DHT22;41031;44.750;11.308;2024-03-02T15:12:21;15.60;98.50
55135;DHT22;41031;44.750;11.308;2024-03-02T15:14:49;15.60;98.70
55135;DHT22;41031;44.750;11.308;2024-03-02T15:17:16;15.70;98.70
55135;DHT22;41031;44.750;11.308;2024-03-02T15:19:45;15.70;98.60
55135;DHT22;41031;44.750;11.308;2024-03-02T15:22:12;15.70;98.70
55135;DHT22;41031;44.750;11.308;2024-03-02T15:24:40;15.70;98.60
55135;DHT22;41031;44.750;11.308;2024-03-02T15:27:09;15.70;98.50
55135;DHT22;41031;44.750;11.308;2024-03-02T15:29:37;15.70;98.20
55135;DHT22;41031;44.750;11.308;2024-03-02T15:32:06;15.60;98.10
55135;DHT22;41031;44.750;11.308;2024-03-02T15:34:34;15.50;98.20